<?xml version="1.0" encoding="UTF-8" standalone="no" ?>
<gpx xmlns="http://www.topografix.com/GPX/1/1" xmlns:xsi="http://www.w3.org/2001/XMLSchema-instance" xsi:schemaLocation="http://www.topografix.com/GPX/1/1 http://www.topografix.com/GPX/1/1/gpx.xsd" version="1.1" creator="VisuGPX - https://www.visugpx.com">
  <metadata>
    <name>14146082-Taillefer par grenonière</name>
  </metadata>
  <trk>
    <name><![CDATA[14146082-Taillefer par grenonière]]></name>
    <trkseg>
      <trkpt lat="45.05248" lon="5.97422">
        <ele>1289</ele>
        <time>2022-01-18T20:40:48Z</time>
      </trkpt>
      <trkpt lat="45.05386" lon="5.97188">
        <ele>1292</ele>
        <time>2022-01-18T20:43:40Z</time>
      </trkpt>
      <trkpt lat="45.05542" lon="5.96927">
        <ele>1400</ele>
        <time>2022-01-18T20:46:54Z</time>
      </trkpt>
      <trkpt lat="45.05597" lon="5.96799">
        <ele>1423</ele>
        <time>2022-01-18T20:48:19Z</time>
      </trkpt>
      <trkpt lat="45.05634" lon="5.96725">
        <ele>1452</ele>
        <time>2022-01-18T20:49:10Z</time>
      </trkpt>
      <trkpt lat="45.05667" lon="5.96639">
        <ele>1499</ele>
        <time>2022-01-18T20:50:05Z</time>
      </trkpt>
      <trkpt lat="45.05851" lon="5.96329">
        <ele>1713</ele>
        <time>2022-01-18T20:53:54Z</time>
      </trkpt>
      <trkpt lat="45.05909" lon="5.96231">
        <ele>1768</ele>
        <time>2022-01-18T20:55:06Z</time>
      </trkpt>
      <trkpt lat="45.05972" lon="5.96116">
        <ele>1794</ele>
        <time>2022-01-18T20:56:29Z</time>
      </trkpt>
      <trkpt lat="45.06027" lon="5.96002">
        <ele>1827</ele>
        <time>2022-01-18T20:57:47Z</time>
      </trkpt>
      <trkpt lat="45.06057" lon="5.9584">
        <ele>1865</ele>
        <time>2022-01-18T20:59:22Z</time>
      </trkpt>
      <trkpt lat="45.06074" lon="5.95712">
        <ele>1910</ele>
        <time>2022-01-18T21:00:35Z</time>
      </trkpt>
      <trkpt lat="45.061" lon="5.95488">
        <ele>1966</ele>
        <time>2022-01-18T21:02:44Z</time>
      </trkpt>
      <trkpt lat="45.06108" lon="5.95257">
        <ele>1962</ele>
        <time>2022-01-18T21:04:54Z</time>
      </trkpt>
      <trkpt lat="45.06035" lon="5.94808">
        <ele>2012</ele>
        <time>2022-01-18T21:09:15Z</time>
      </trkpt>
      <trkpt lat="45.05993" lon="5.94743">
        <ele>2012</ele>
        <time>2022-01-18T21:10:05Z</time>
      </trkpt>
      <trkpt lat="45.05797" lon="5.94288">
        <ele>2010</ele>
        <time>2022-01-18T21:15:06Z</time>
      </trkpt>
      <trkpt lat="45.05741" lon="5.94093">
        <ele>2025</ele>
        <time>2022-01-18T21:17:05Z</time>
      </trkpt>
      <trkpt lat="45.05611" lon="5.93866">
        <ele>2035</ele>
        <time>2022-01-18T21:19:51Z</time>
      </trkpt>
      <trkpt lat="45.05486" lon="5.93516">
        <ele>2048</ele>
        <time>2022-01-18T21:23:32Z</time>
      </trkpt>
      <trkpt lat="45.05346" lon="5.93043">
        <ele>2075</ele>
        <time>2022-01-18T21:28:23Z</time>
      </trkpt>
      <trkpt lat="45.05244" lon="5.92729">
        <ele>2077</ele>
        <time>2022-01-18T21:31:38Z</time>
      </trkpt>
      <trkpt lat="45.05158" lon="5.92679">
        <ele>2111</ele>
        <time>2022-01-18T21:32:52Z</time>
      </trkpt>
      <trkpt lat="45.05065" lon="5.92696">
        <ele>2153</ele>
        <time>2022-01-18T21:34:08Z</time>
      </trkpt>
      <trkpt lat="45.04912" lon="5.92769">
        <ele>2212</ele>
        <time>2022-01-18T21:36:17Z</time>
      </trkpt>
      <trkpt lat="45.04719" lon="5.92747">
        <ele>2324</ele>
        <time>2022-01-18T21:38:52Z</time>
      </trkpt>
      <trkpt lat="45.04596" lon="5.92769">
        <ele>2364</ele>
        <time>2022-01-18T21:40:31Z</time>
      </trkpt>
      <trkpt lat="45.04428" lon="5.92826">
        <ele>2402</ele>
        <time>2022-01-18T21:42:49Z</time>
      </trkpt>
      <trkpt lat="45.04183" lon="5.93021">
        <ele>2477</ele>
        <time>2022-01-18T21:46:34Z</time>
      </trkpt>
      <trkpt lat="45.04053" lon="5.93093">
        <ele>2536</ele>
        <time>2022-01-18T21:48:26Z</time>
      </trkpt>
      <trkpt lat="45.03913" lon="5.93162">
        <ele>2599</ele>
        <time>2022-01-18T21:50:25Z</time>
      </trkpt>
      <trkpt lat="45.03816" lon="5.93137">
        <ele>2625</ele>
        <time>2022-01-18T21:51:44Z</time>
      </trkpt>
      <trkpt lat="45.0378" lon="5.93086">
        <ele>2618</ele>
        <time>2022-01-18T21:52:25Z</time>
      </trkpt>
      <trkpt lat="45.03783" lon="5.93028">
        <ele>2625</ele>
        <time>2022-01-18T21:52:58Z</time>
      </trkpt>
      <trkpt lat="45.03795" lon="5.92909">
        <ele>2657</ele>
        <time>2022-01-18T21:54:06Z</time>
      </trkpt>
      <trkpt lat="45.03829" lon="5.92794">
        <ele>2701</ele>
        <time>2022-01-18T21:55:16Z</time>
      </trkpt>
      <trkpt lat="45.039" lon="5.92711">
        <ele>2743</ele>
        <time>2022-01-18T21:56:30Z</time>
      </trkpt>
      <trkpt lat="45.03923" lon="5.92686">
        <ele>2755</ele>
        <time>2022-01-18T21:56:53Z</time>
      </trkpt>
      <trkpt lat="45.03966" lon="5.92465">
        <ele>2822</ele>
        <time>2022-01-18T21:59:03Z</time>
      </trkpt>
      <trkpt lat="45.03948" lon="5.92364">
        <ele>2829</ele>
        <time>2022-01-18T22:00:02Z</time>
      </trkpt>
      <trkpt lat="45.0392" lon="5.92151">
        <ele>2772</ele>
        <time>2022-01-18T22:02:04Z</time>
      </trkpt>
      <trkpt lat="45.04191" lon="5.92209">
        <ele>2704</ele>
        <time>2022-01-18T22:05:44Z</time>
      </trkpt>
      <trkpt lat="45.04435" lon="5.92382">
        <ele>2522</ele>
        <time>2022-01-18T22:09:22Z</time>
      </trkpt>
      <trkpt lat="45.04555" lon="5.92617">
        <ele>2411</ele>
        <time>2022-01-18T22:12:06Z</time>
      </trkpt>
      <trkpt lat="45.04588" lon="5.92722">
        <ele>2377</ele>
        <time>2022-01-18T22:13:11Z</time>
      </trkpt>
      <trkpt lat="45.04811" lon="5.92711">
        <ele>2286</ele>
        <time>2022-01-18T22:16:10Z</time>
      </trkpt>
      <trkpt lat="45.04947" lon="5.92703">
        <ele>2213</ele>
        <time>2022-01-18T22:17:59Z</time>
      </trkpt>
      <trkpt lat="45.05087" lon="5.92652">
        <ele>2147</ele>
        <time>2022-01-18T22:19:55Z</time>
      </trkpt>
      <trkpt lat="45.05205" lon="5.9267">
        <ele>2091</ele>
        <time>2022-01-18T22:21:30Z</time>
      </trkpt>
      <trkpt lat="45.0529" lon="5.92764">
        <ele>2068</ele>
        <time>2022-01-18T22:22:56Z</time>
      </trkpt>
      <trkpt lat="45.05363" lon="5.92989">
        <ele>2075</ele>
        <time>2022-01-18T22:25:16Z</time>
      </trkpt>
      <trkpt lat="45.05586" lon="5.93647">
        <ele>2068</ele>
        <time>2022-01-18T22:32:09Z</time>
      </trkpt>
      <trkpt lat="45.05974" lon="5.94585">
        <ele>2024</ele>
        <time>2022-01-18T22:42:24Z</time>
      </trkpt>
      <trkpt lat="45.06083" lon="5.94919">
        <ele>2011</ele>
        <time>2022-01-18T22:45:52Z</time>
      </trkpt>
      <trkpt lat="45.06143" lon="5.95265">
        <ele>1980</ele>
        <time>2022-01-18T22:49:13Z</time>
      </trkpt>
      <trkpt lat="45.06133" lon="5.95453">
        <ele>1979</ele>
        <time>2022-01-18T22:51:00Z</time>
      </trkpt>
      <trkpt lat="45.06096" lon="5.95774">
        <ele>1905</ele>
        <time>2022-01-18T22:54:04Z</time>
      </trkpt>
      <trkpt lat="45.06051" lon="5.96035">
        <ele>1832</ele>
        <time>2022-01-18T22:56:36Z</time>
      </trkpt>
      <trkpt lat="45.05946" lon="5.96248">
        <ele>1779</ele>
        <time>2022-01-18T22:59:03Z</time>
      </trkpt>
      <trkpt lat="45.05781" lon="5.96518">
        <ele>1600</ele>
        <time>2022-01-18T23:02:25Z</time>
      </trkpt>
      <trkpt lat="45.05678" lon="5.96715">
        <ele>1481</ele>
        <time>2022-01-18T23:04:43Z</time>
      </trkpt>
      <trkpt lat="45.05588" lon="5.96931">
        <ele>1423</ele>
        <time>2022-01-18T23:07:05Z</time>
      </trkpt>
      <trkpt lat="45.05438" lon="5.97189">
        <ele>1312</ele>
        <time>2022-01-18T23:10:14Z</time>
      </trkpt>
      <trkpt lat="45.0528" lon="5.97486">
        <ele>1308</ele>
        <time>2022-01-18T23:13:44Z</time>
      </trkpt>
    </trkseg>
  </trk>
</gpx>